Accueil
METAR-TAF:

METAR-TAF

Aéroports :

Circuit de Zeltweg

Zeltweg, Autriche

latitude: 47-12N, longitude: 014-45E, altitude: 677 m

Observation

Le bulletin a été fait il y a 4 heures et 13 minutes, à 20:50 UTC
Vent 1 kt de direction variable
Température 8°C
Humidité 100%
Pression 1027 hPa
Visibilité 10 km ou plus
Nuages fragmentés à une hauteur de 25000 ft

METAR: LOXZ 052050Z VRB01KT 9999 BKN250 08/08 Q1027

Heure: 03:03 (01:03 UTC)

Prévision

Le bulletin a été fait il y a 10 heures et 48 minutes, à 14:15 UTC
Prévision valable du 05 à 15 UTC au 05 à 24 UTC
Vent 3 kt de direction variable
Visibilité 10 km ou plus
Nuages épars à une hauteur de 32000 ft

TAF: LOXZ 051415Z 0515/0524 VRB03KT 9999 SCT320

Observations et prévisions météorologiques de plus de 4000 aéroports (messages METAR et TAF).

Les stations disponibles sont représentées par des disques jaunes et rouges sur la carte.

Passer la souris dessus pour voir le nom de la station.

Cliquer dessus pour voir les observations et prévisions météorologiques.

Pour changer de carte: cliquez sur les boutons verts avec une croix noire pour zoomer, sur le bouton vert avec un tiret pour effectuer un zoom arrière, ou sur les flèches vertes pour les cartes adjacentes.


METAR-TAF: